Time;durP1;ratioP1;P1;durP2;ratioP2;P2;SDS_P1;SDS_P2;PMS_P1;PMS_P2;Temp;Humidity;BMP_temperature;BMP_pressure;BME280_temperature;BME280_humidity;BME280_pressure;Samples;Min_cycle;Max_cycle;Signal;HPM_P1;HPM_P2
2021/01/04 00:00:54;;;;;;;20.47;7.13;;;1.60;99.90;;;2.46;100.00;101246.19;5054420;28;20189;-70
2021/01/04 00:03:56;;;;;;;22.67;8.30;;;1.60;99.90;;;2.44;100.00;101236.72;5054231;28;20204;-70
2021/01/04 00:07:14;;;;;;;21.63;8.00;;;1.60;99.90;;;2.47;100.00;101241.88;5052872;28;20203;-70
2021/01/04 00:10:01;;;;;;;24.60;7.87;;;1.60;99.90;;;2.49;100.00;101240.19;5031168;28;20197;-70
2021/01/04 00:12:37;;;;;;;27.13;8.37;;;1.60;99.90;;;2.49;100.00;101247.94;5054243;28;20218;-70
2021/01/04 00:15:12;;;;;;;22.70;7.13;;;1.60;99.90;;;2.48;100.00;101239.31;5053936;28;20198;-70
2021/01/04 00:18:21;;;;;;;18.87;7.70;;;1.60;99.90;;;2.50;100.00;101242.75;5052692;28;20192;-70
2021/01/04 00:20:57;;;;;;;21.67;7.27;;;1.60;99.90;;;2.50;100.00;101240.19;5063388;28;20200;-70
2021/01/04 00:23:38;;;;;;;19.53;6.63;;;1.60;99.90;;;2.49;100.00;101246.19;5072367;28;20242;-70
2021/01/04 00:26:12;;;;;;;20.50;7.30;;;1.60;99.90;;;2.50;100.00;101247.06;5073109;28;20237;-69
2021/01/04 00:28:39;;;;;;;22.13;8.23;;;1.60;99.90;;;2.51;99.97;101244.47;5073743;28;20180;-70
2021/01/04 00:31:14;;;;;;;21.83;8.23;;;1.70;99.90;;;2.53;100.00;101236.72;5073889;28;20185;-70
2021/01/04 00:33:46;;;;;;;21.00;8.57;;;1.70;99.90;;;2.56;100.00;101240.19;5072704;28;20195;-70
2021/01/04 00:36:21;;;;;;;18.90;7.33;;;1.70;99.90;;;2.58;100.00;101239.34;5073595;28;20191;-70
2021/01/04 00:39:23;;;;;;;19.43;7.73;;;1.70;99.90;;;2.58;100.00;101240.19;5073400;28;20184;-70
2021/01/04 00:42:02;;;;;;;22.03;7.77;;;1.70;99.90;;;2.60;99.92;101242.81;5073499;28;20215;-70
2021/01/04 00:44:43;;;;;;;20.17;7.53;;;1.80;99.90;;;2.58;99.99;101241.94;5089265;28;20597;-69
2021/01/04 00:47:24;;;;;;;18.30;7.40;;;1.70;99.90;;;2.55;99.89;101235.03;5072094;28;20239;-70
2021/01/04 00:50:02;;;;;;;16.67;7.00;;;1.70;99.90;;;2.53;99.89;101235.03;5073132;28;20708;-70
2021/01/04 00:52:38;;;;;;;18.80;7.80;;;1.70;99.90;;;2.53;100.00;101232.44;5057442;28;20573;-70
2021/01/04 00:55:44;;;;;;;18.27;7.13;;;1.70;99.90;;;2.52;99.86;101246.22;5053316;28;20188;-70
2021/01/04 00:58:41;;;;;;;21.50;8.73;;;1.70;99.90;;;2.54;100.00;101236.72;5053071;28;20189;-69
2021/01/04 01:01:14;;;;;;;20.67;8.07;;;1.70;99.90;;;2.56;100.00;101232.44;5052094;28;20197;-70
2021/01/04 01:04:04;;;;;;;21.07;8.47;;;1.70;99.90;;;2.58;99.88;101241.06;5053293;28;20189;-70
2021/01/04 01:06:42;;;;;;;20.10;8.07;;;1.70;99.90;;;2.62;100.00;101238.47;5053145;28;20254;-70
2021/01/04 01:09:12;;;;;;;19.10;7.97;;;1.70;99.90;;;2.64;99.93;101239.34;5053004;28;20230;-70
2021/01/04 01:12:10;;;;;;;19.33;8.97;;;1.70;99.90;;;2.63;100.00;101237.63;5053193;28;20711;-70
2021/01/04 01:14:46;;;;;;;19.50;7.63;;;1.70;99.90;;;2.64;99.85;101244.53;5053139;28;20177;-70
2021/01/04 01:17:46;;;;;;;17.50;7.20;;;1.70;99.90;;;2.61;99.82;101240.22;5052995;28;20200;-70
2021/01/04 01:20:19;;;;;;;16.97;6.63;;;1.70;99.90;;;2.58;100.00;101233.31;5058456;28;20192;-70
2021/01/04 01:22:46;;;;;;;19.60;6.83;;;1.70;99.90;;;2.56;99.75;101235.03;5061001;28;20219;-70
2021/01/04 01:25:17;;;;;;;18.87;7.30;;;1.70;99.90;;;2.57;99.55;101233.31;5072916;28;20199;-70
2021/01/04 01:28:14;;;;;;;17.20;7.13;;;1.70;99.90;;;2.57;99.78;101235.91;5072814;28;20213;-70
2021/01/04 01:31:11;;;;;;;18.00;7.23;;;1.70;99.90;;;2.55;99.65;101235.88;5071216;28;20184;-70
2021/01/04 01:34:12;;;;;;;20.57;7.03;;;1.70;99.90;;;2.51;99.49;101241.88;5072682;28;20195;-70
2021/01/04 01:37:02;;;;;;;20.97;8.93;;;1.60;99.90;;;2.50;99.42;101236.72;5073633;28;20585;-70
2021/01/04 01:40:29;;;;;;;18.40;7.77;;;1.60;99.90;;;2.54;99.70;101238.47;5071142;28;20192;-70
2021/01/04 01:43:20;;;;;;;21.60;7.97;;;1.60;99.90;;;2.57;99.68;101241.06;5070369;28;20709;-70
2021/01/04 01:45:54;;;;;;;17.93;7.73;;;1.60;99.90;;;2.55;99.79;101238.47;5072480;28;20195;-71
2021/01/04 01:48:37;;;;;;;18.60;7.93;;;1.60;99.90;;;2.56;99.41;101240.19;5071950;28;20695;-70
2021/01/04 01:51:20;;;;;;;20.30;8.93;;;1.60;99.90;;;2.58;99.59;101243.66;5062292;28;20198;-70
2021/01/04 01:54:10;;;;;;;19.43;8.10;;;1.70;99.90;;;2.61;99.65;101245.38;5055105;28;20203;-70
2021/01/04 01:57:01;;;;;;;16.93;7.30;;;1.60;99.90;;;2.63;99.63;101245.38;5050865;28;20250;-70
2021/01/04 02:00:03;;;;;;;19.83;7.07;;;1.60;99.90;;;2.62;99.65;101246.22;5050697;28;20192;-70
2021/01/04 02:02:41;;;;;;;18.73;7.27;;;1.60;99.90;;;2.63;99.39;101242.81;5051976;28;20227;-70
2021/01/04 02:05:15;;;;;;;17.60;6.87;;;1.70;99.90;;;2.65;99.69;101243.69;5050568;28;20196;-70
2021/01/04 02:07:55;;;;;;;18.47;7.30;;;1.70;99.90;;;2.64;99.25;101247.09;5050553;28;20208;-70
2021/01/04 02:10:30;;;;;;;18.57;7.70;;;1.70;99.90;;;2.64;99.59;101244.53;5050432;28;20248;-70
2021/01/04 02:13:07;;;;;;;17.33;6.43;;;1.80;99.90;;;2.66;99.65;101247.97;5050578;28;20235;-70
2021/01/04 02:15:42;;;;;;;16.90;6.20;;;1.70;99.90;;;2.69;99.37;101245.38;5051836;28;20242;-70
2021/01/04 02:18:31;;;;;;;16.53;6.77;;;1.80;99.90;;;2.70;99.57;101249.72;5051691;28;20206;-69
2021/01/04 02:21:58;;;;;;;17.02;7.00;;;1.80;99.90;;;2.69;99.40;101248.84;5065392;28;20750;-70
2021/01/04 02:24:27;;;;;;;15.97;6.30;;;1.80;99.90;;;2.64;99.27;101244.53;5051761;28;20195;-71
2021/01/04 02:27:05;;;;;;;13.37;5.53;;;1.70;99.90;;;2.61;99.47;101244.50;5051696;28;20208;-70
2021/01/04 02:29:31;;;;;;;16.70;6.70;;;1.70;99.90;;;2.57;99.40;101251.38;5050227;28;20207;-69
2021/01/04 02:32:02;;;;;;;20.83;6.97;;;1.70;99.90;;;2.58;99.25;101247.09;5051607;28;20216;-70
2021/01/04 02:34:35;;;;;;;15.50;6.30;;;1.70;99.90;;;2.58;99.31;101252.25;5050007;28;20196;-70
2021/01/04 02:37:04;;;;;;;15.40;6.57;;;1.70;99.90;;;2.56;99.39;101252.25;5050346;28;20197;-70
2021/01/04 02:39:40;;;;;;;11.87;5.30;;;1.70;99.90;;;2.54;99.18;101249.63;5051304;28;20704;-70
2021/01/04 02:42:22;;;;;;;14.57;5.67;;;1.70;99.90;;;2.50;99.09;101237.59;5051417;28;20282;-70
2021/01/04 02:44:48;;;;;;;15.07;6.10;;;1.70;99.90;;;2.46;98.96;101241.00;5066722;28;20762;-70
2021/01/04 02:48:00;;;;;;;15.80;6.87;;;1.70;99.90;;;2.47;99.19;101250.50;5051185;28;20774;-70
2021/01/04 02:50:41;;;;;;;13.57;5.50;;;1.70;99.90;;;2.48;98.99;101249.63;5061539;28;20261;-70
2021/01/04 02:53:51;;;;;;;16.87;5.93;;;1.70;99.90;;;2.47;99.18;101237.59;5063118;28;20666;-70
2021/01/04 02:56:37;;;;;;;14.47;6.13;;;1.70;99.90;;;2.49;98.96;101259.09;5028968;28;20310;-70
2021/01/04 02:59:17;;;;;;;14.33;6.07;;;1.70;99.90;;;2.52;99.23;101251.38;5012161;28;20208;-70
2021/01/04 03:01:52;;;;;;;12.43;4.93;;;1.70;99.90;;;2.53;99.07;101244.47;5060064;28;20224;-70
2021/01/04 03:04:22;;;;;;;15.20;5.90;;;1.70;99.90;;;2.54;98.79;101262.56;5069871;28;20191;-70
2021/01/04 03:06:57;;;;;;;14.60;5.90;;;1.70;99.90;;;2.52;98.94;101259.13;5071142;28;20687;-70
2021/01/04 03:09:26;;;;;;;13.83;5.53;;;1.70;99.90;;;2.50;98.78;101254.78;5069806;28;20191;-71
2021/01/04 03:11:53;;;;;;;13.93;5.80;;;1.70;99.90;;;2.49;98.86;101248.75;5071018;28;20753;-70
2021/01/04 03:14:42;;;;;;;16.30;6.67;;;1.70;99.90;;;2.51;98.87;101259.97;5071117;28;20204;-70
2021/01/04 03:17:20;;;;;;;16.07;5.77;;;1.70;99.90;;;2.54;98.98;101254.81;5069820;28;20192;-70
2021/01/04 03:19:55;;;;;;;12.90;5.23;;;1.70;99.90;;;2.56;98.85;101258.25;5068647;28;20192;-70
2021/01/04 03:22:22;;;;;;;16.03;6.33;;;1.70;99.90;;;2.55;98.88;101261.72;5062084;28;20211;-70
2021/01/04 03:24:50;;;;;;;15.30;5.20;;;1.70;99.90;;;2.52;98.70;101256.53;5070894;28;20184;-70
2021/01/04 03:27:25;;;;;;;14.50;5.80;;;1.70;99.90;;;2.52;98.68;101261.72;5069548;28;20215;-70
2021/01/04 03:29:51;;;;;;;14.33;5.87;;;1.70;99.90;;;2.50;98.75;101259.97;5070817;28;20271;-70
2021/01/04 03:32:18;;;;;;;15.83;5.40;;;1.60;99.90;;;2.50;98.85;101265.13;5070822;28;20575;-70
2021/01/04 03:34:45;;;;;;;15.47;5.93;;;1.60;99.90;;;2.50;98.62;101260.84;5069182;28;20559;-68
2021/01/04 03:37:12;;;;;;;12.83;4.70;;;1.60;99.90;;;2.49;98.67;101253.94;5070905;28;20188;-70
2021/01/04 03:39:43;;;;;;;14.00;6.00;;;1.60;99.90;;;2.48;98.62;101259.97;5069326;28;20195;-69
2021/01/04 03:42:12;;;;;;;13.47;5.67;;;1.60;99.90;;;2.48;98.79;101261.66;5070800;28;20208;-70
2021/01/04 03:44:40;;;;;;;13.53;5.00;;;1.60;99.90;;;2.48;98.46;101266.84;5070614;28;20207;-70
2021/01/04 03:47:07;;;;;;;16.00;5.67;;;1.60;99.90;;;2.48;98.58;101261.66;5070589;28;20761;-69
2021/01/04 03:49:33;;;;;;;14.83;6.27;;;1.60;99.90;;;2.46;98.75;101261.66;5068855;28;20261;-70
2021/01/04 03:52:01;;;;;;;13.80;5.03;;;1.60;99.90;;;2.47;98.61;101258.25;5062030;28;20208;-70
2021/01/04 03:54:28;;;;;;;15.87;5.60;;;1.60;99.90;;;2.47;98.73;101262.53;5070667;28;20188;-70
2021/01/04 03:56:55;;;;;;;14.47;5.83;;;1.60;99.90;;;2.47;98.58;101258.25;5070698;28;20188;-70
2021/01/04 03:59:22;;;;;;;16.47;5.80;;;1.60;99.90;;;2.49;98.77;101253.09;5070504;28;20187;-70
2021/01/04 04:01:51;;;;;;;15.57;5.67;;;1.60;99.90;;;2.47;98.82;101253.09;5073362;28;20204;-70
2021/01/04 04:04:19;;;;;;;15.17;5.63;;;1.60;99.90;;;2.47;98.39;101258.25;5074152;28;20263;-70
2021/01/04 04:06:45;;;;;;;15.73;6.10;;;1.50;99.90;;;2.45;98.45;101252.22;5073954;28;20180;-70
2021/01/04 04:09:14;;;;;;;14.57;5.47;;;1.60;99.90;;;2.46;98.59;101251.34;5074027;28;20180;-70
2021/01/04 04:11:41;;;;;;;11.93;4.87;;;1.50;99.90;;;2.43;98.41;101243.59;5074005;28;20207;-71
2021/01/04 04:14:07;;;;;;;14.27;5.50;;;1.50;99.90;;;2.43;98.55;101246.16;5073916;28;20188;-70
2021/01/04 04:16:34;;;;;;;19.20;6.37;;;1.50;99.90;;;2.47;98.64;101240.19;5074057;28;20188;-70
2021/01/04 04:19:01;;;;;;;15.67;6.10;;;1.60;99.90;;;2.48;98.65;101249.63;5073781;28;20199;-70
2021/01/04 04:21:27;;;;;;;15.00;6.30;;;1.60;99.90;;;2.47;98.59;101252.22;5066711;28;20196;-70
2021/01/04 04:23:54;;;;;;;15.40;6.07;;;1.60;99.90;;;2.48;98.71;101248.75;5070394;28;20203;-71
2021/01/04 04:26:23;;;;;;;13.07;5.70;;;1.60;99.90;;;2.50;98.51;101236.72;5072368;28;20200;-70
2021/01/04 04:28:50;;;;;;;15.87;6.73;;;1.60;99.90;;;2.52;98.60;101240.19;5072227;28;20241;-70
2021/01/04 04:31:17;;;;;;;12.20;5.70;;;1.60;99.90;;;2.53;98.77;101232.44;5073596;28;20199;-70
2021/01/04 04:33:45;;;;;;;15.03;6.23;;;1.60;99.90;;;2.54;98.43;101239.31;5073546;28;20540;-70
2021/01/04 04:36:20;;;;;;;14.77;6.97;;;1.60;99.90;;;2.53;98.56;101237.59;5073668;28;20206;-71
2021/01/04 04:38:47;;;;;;;17.93;6.47;;;1.60;99.90;;;2.51;98.45;101233.31;5072062;28;20711;-70
2021/01/04 04:41:26;;;;;;;14.93;6.13;;;1.60;99.90;;;2.49;98.45;101246.19;5072246;28;20195;-70
2021/01/04 04:44:05;;;;;;;16.47;6.57;;;1.70;99.90;;;2.50;98.62;101242.75;5073460;28;20298;-70
2021/01/04 04:46:49;;;;;;;15.43;5.80;;;1.70;99.90;;;2.52;98.53;101242.75;5073638;28;20184;-70
2021/01/04 04:49:39;;;;;;;15.07;6.10;;;1.70;99.90;;;2.55;98.74;101235.88;5073107;28;20203;-70
2021/01/04 04:52:30;;;;;;;16.30;6.97;;;1.70;99.90;;;2.58;98.69;101247.09;5064562;28;20211;-70
2021/01/04 04:55:13;;;;;;;15.93;5.70;;;1.70;99.90;;;2.54;98.55;101244.47;5073357;28;20188;-70
2021/01/04 04:58:10;;;;;;;12.60;4.93;;;1.60;99.90;;;2.53;98.26;101247.94;5073277;28;20185;-70
2021/01/04 05:00:57;;;;;;;15.13;6.10;;;1.60;99.90;;;2.50;98.15;101254.78;5068550;28;20196;-71
2021/01/04 05:03:54;;;;;;;13.27;5.50;;;1.60;99.90;;;2.48;98.15;101252.22;5066821;28;20216;-70
2021/01/04 05:06:37;;;;;;;14.53;5.60;;;1.60;99.90;;;2.48;98.36;101259.97;5066739;28;20255;-70
2021/01/04 05:09:28;;;;;;;14.93;5.37;;;1.60;99.90;;;2.50;98.31;101253.09;5070867;28;20199;-70
2021/01/04 05:12:10;;;;;;;15.87;5.90;;;1.60;99.90;;;2.51;98.35;101262.53;5071010;28;20227;-70
2021/01/04 05:14:53;;;;;;;18.20;5.20;;;1.60;99.90;;;2.49;98.29;101256.50;5072860;28;20681;-70
2021/01/04 05:18:04;;;;;;;17.60;6.00;;;1.50;99.90;;;2.45;98.30;101259.94;5071593;28;20287;-70
2021/01/04 05:21:13;;;;;;;13.23;4.67;;;1.50;99.90;;;2.44;98.26;101263.38;5072672;28;20283;-70
2021/01/04 05:24:14;;;;;;;18.73;5.33;;;1.50;99.90;;;2.41;98.33;101258.19;5072645;28;20183;-70
2021/01/04 05:27:00;;;;;;;12.87;4.37;;;1.40;99.90;;;2.36;98.30;101254.75;5071328;28;20567;-70
2021/01/04 05:29:58;;;;;;;13.17;5.03;;;1.40;99.90;;;2.34;98.39;101259.03;5071498;28;20528;-71
2021/01/04 05:33:05;;;;;;;13.33;4.80;;;1.40;99.90;;;2.32;98.36;101258.19;5072429;28;20212;-70
2021/01/04 05:35:35;;;;;;;14.03;5.90;;;1.40;99.90;;;2.32;98.58;101262.47;5074421;28;20207;-71
2021/01/04 05:38:13;;;;;;;12.77;4.37;;;1.40;99.90;;;2.33;98.35;101259.91;5063995;28;20193;-68
2021/01/04 05:41:16;;;;;;;15.63;5.43;;;1.40;99.90;;;2.34;98.53;101265.94;5072265;28;20184;-70
2021/01/04 05:44:06;;;;;;;14.17;4.93;;;1.40;99.90;;;2.35;98.55;101268.50;5072493;28;20183;-71
2021/01/04 05:46:46;;;;;;;13.07;5.10;;;1.40;99.90;;;2.34;98.70;101266.78;5072424;28;20176;-70
2021/01/04 05:49:27;;;;;;;12.57;4.40;;;1.40;99.90;;;2.31;98.43;101268.50;5071992;28;20202;-70
2021/01/04 05:51:53;;;;;;;13.10;4.80;;;1.40;99.90;;;2.31;98.62;101269.34;5072284;28;20207;-70
2021/01/04 05:54:28;;;;;;;11.10;3.73;;;1.30;99.90;;;2.29;98.59;101271.06;5072349;28;20555;-70
2021/01/04 05:57:05;;;;;;;12.70;4.17;;;1.30;99.90;;;2.28;98.53;101274.50;5072195;28;20267;-70
2021/01/04 05:59:33;;;;;;;10.70;4.17;;;1.40;99.90;;;2.29;98.87;101265.88;5070556;28;20644;-70
2021/01/04 06:02:04;;;;;;;10.83;3.80;;;1.40;99.90;;;2.31;98.64;101265.94;5070589;28;20208;-70
2021/01/04 06:04:31;;;;;;;12.90;4.53;;;1.30;99.90;;;2.33;98.70;101267.63;5070557;28;20196;-70
2021/01/04 06:07:02;;;;;;;13.57;4.87;;;1.40;99.90;;;2.34;98.89;101263.34;5085266;28;20191;-70
2021/01/04 06:09:31;;;;;;;15.97;4.70;;;1.40;99.90;;;2.32;98.73;101270.22;5050563;28;20200;-70
2021/01/04 06:12:01;;;;;;;13.13;4.43;;;1.40;99.90;;;2.31;98.83;101266.75;5051764;28;20205;-70
2021/01/04 06:14:33;;;;;;;10.37;4.40;;;1.40;99.90;;;2.32;99.13;101271.09;5051919;28;20196;-71
2021/01/04 06:17:03;;;;;;;14.50;4.97;;;1.40;99.90;;;2.31;99.07;101268.50;5050570;28;20193;-70
2021/01/04 06:19:35;;;;;;;12.70;5.23;;;1.40;99.90;;;2.29;98.75;101273.63;5051451;28;20246;-71
2021/01/04 06:22:10;;;;;;;16.10;5.60;;;1.40;99.90;;;2.30;98.77;101272.78;5051455;28;20201;-69
2021/01/04 06:24:40;;;;;;;15.00;5.37;;;1.40;99.90;;;2.31;99.04;101266.75;5049780;28;20238;-71
2021/01/04 06:27:13;;;;;;;13.57;5.30;;;1.40;99.90;;;2.33;99.02;101274.50;5051522;28;20754;-70
2021/01/04 06:29:44;;;;;;;12.80;4.83;;;1.40;99.90;;;2.31;98.87;101271.94;5059546;28;20189;-70
2021/01/04 06:32:29;;;;;;;14.70;4.97;;;1.40;99.90;;;2.29;98.98;101271.06;5051695;28;20307;-70
2021/01/04 06:35:00;;;;;;;11.50;4.60;;;1.40;99.90;;;2.29;98.84;101271.06;5050193;28;20196;-71
2021/01/04 06:37:29;;;;;;;10.30;4.17;;;1.40;99.90;;;2.29;98.96;101272.78;5051517;28;20188;-70
2021/01/04 06:40:09;;;;;;;13.77;4.70;;;1.30;99.90;;;2.26;98.79;101273.63;5066601;28;20238;-71
2021/01/04 06:42:40;;;;;;;12.50;4.77;;;1.30;99.90;;;2.27;98.95;101272.78;5051689;28;20212;-70
2021/01/04 06:45:21;;;;;;;12.40;5.00;;;1.20;99.90;;;2.27;99.15;101277.06;5051487;28;20242;-70
2021/01/04 06:48:00;;;;;;;12.60;4.53;;;1.20;99.90;;;2.26;98.92;101278.78;5051441;28;20204;-71
2021/01/04 06:50:37;;;;;;;12.97;5.00;;;1.20;99.90;;;2.23;98.74;101276.19;5066554;28;20196;-70
2021/01/04 06:54:02;;;;;;;12.83;4.93;;;1.20;99.90;;;2.19;98.72;101271.84;5051290;28;20266;-70
2021/01/04 06:57:24;;;;;;;15.50;5.03;;;1.20;99.90;;;2.17;99.13;101278.75;5051357;28;20684;-70
2021/01/04 07:00:32;;;;;;;15.43;6.37;;;1.20;99.90;;;2.20;99.14;101283.94;5060538;28;20665;-70
2021/01/04 07:03:39;;;;;;;14.07;5.63;;;1.20;99.90;;;2.17;98.88;101281.34;5071054;28;20684;-69
2021/01/04 07:06:58;;;;;;;13.20;5.30;;;1.20;99.90;;;2.17;99.29;101283.91;5069738;28;20198;-70
2021/01/04 07:10:05;;;;;;;16.17;6.33;;;1.20;99.90;;;2.20;99.22;101280.47;5070973;28;20188;-70
2021/01/04 07:13:01;;;;;;;17.20;5.93;;;1.20;99.90;;;2.22;99.30;101286.50;5069709;28;20739;-70
2021/01/04 07:15:31;;;;;;;18.27;6.33;;;1.20;99.90;;;2.21;99.26;101288.22;5069778;28;20242;-70
2021/01/04 07:18:36;;;;;;;17.13;7.53;;;1.30;99.90;;;2.26;99.26;101299.44;5069609;28;20207;-71
2021/01/04 07:21:36;;;;;;;16.70;6.33;;;1.30;99.90;;;2.28;99.19;101299.44;5070200;28;20199;-70
2021/01/04 07:24:19;;;;;;;12.87;4.87;;;1.30;99.90;;;2.26;99.19;101299.44;5077635;28;20279;-69
2021/01/04 07:27:08;;;;;;;14.70;5.33;;;1.30;99.90;;;2.27;99.44;101303.75;5070961;28;20325;-71
2021/01/04 07:30:11;;;;;;;13.63;4.40;;;1.30;99.90;;;2.28;99.47;101296.84;5070792;28;20203;-70
2021/01/04 07:32:50;;;;;;;13.00;4.63;;;1.40;99.90;;;2.29;99.43;101296.88;5069498;28;20254;-70
2021/01/04 07:35:21;;;;;;;12.87;5.10;;;1.40;99.90;;;2.31;99.49;101304.66;5072838;28;20203;-70
2021/01/04 07:38:02;;;;;;;15.10;5.27;;;1.40;99.90;;;2.31;99.49;101308.06;5076132;28;20184;-70
2021/01/04 07:40:45;;;;;;;13.63;5.23;;;1.40;99.90;;;2.30;99.58;101310.63;5073465;28;20195;-70
2021/01/04 07:44:11;;;;;;;15.87;6.10;;;1.40;99.90;;;2.31;99.59;101310.66;5074657;28;20761;-70
2021/01/04 07:47:34;;;;;;;16.93;5.70;;;1.40;99.90;;;2.33;99.59;101310.66;5073486;28;20199;-70
2021/01/04 07:50:29;;;;;;;13.93;5.03;;;1.50;99.90;;;2.32;99.49;101312.38;5074191;28;20212;-71
2021/01/04 07:53:42;;;;;;;14.57;5.40;;;1.40;99.90;;;2.31;99.57;101314.97;5065994;28;20219;-70
2021/01/04 07:57:07;;;;;;;15.00;5.00;;;1.40;99.90;;;2.31;99.58;101322.72;5074470;28;20253;-70
2021/01/04 08:00:37;;;;;;;13.40;4.80;;;1.40;99.90;;;2.30;99.52;101323.53;5074180;28;20188;-70
2021/01/04 08:03:55;;;;;;;14.23;4.47;;;1.40;99.90;;;2.31;99.50;101323.56;5074210;28;20216;-70
2021/01/04 08:07:04;;;;;;;10.93;3.83;;;1.40;99.90;;;2.33;99.43;101323.56;5072422;28;20200;-70
2021/01/04 08:09:59;;;;;;;13.67;4.90;;;1.50;99.90;;;2.35;99.62;101320.16;5074130;28;20189;-71
2021/01/04 08:13:07;;;;;;;16.70;5.90;;;1.50;99.90;;;2.39;99.71;101315.88;5074186;28;20208;-70
2021/01/04 08:15:41;;;;;;;16.13;5.03;;;1.60;99.90;;;2.44;99.54;101325.34;5073711;28;20699;-71
2021/01/04 08:18:11;;;;;;;21.87;6.77;;;1.60;99.90;;;2.43;99.63;101323.63;5073921;28;20195;-71
2021/01/04 08:20:49;;;;;;;14.47;5.30;;;1.60;99.90;;;2.46;99.77;101325.38;5072477;28;20453;-70
2021/01/04 08:23:39;;;;;;;16.07;5.93;;;1.60;99.90;;;2.48;99.54;101327.09;5081948;28;20691;-70
2021/01/04 08:26:21;;;;;;;15.00;5.60;;;1.70;99.90;;;2.49;99.43;101327.97;5072535;28;20189;-70
2021/01/04 08:29:01;;;;;;;12.37;4.33;;;1.70;99.90;;;2.48;99.53;101329.69;5072206;28;20250;-70
2021/01/04 08:31:45;;;;;;;14.47;5.30;;;1.70;99.90;;;2.52;99.60;101339.19;5072517;28;20242;-71
2021/01/04 08:34:19;;;;;;;13.83;4.50;;;1.70;99.90;;;2.53;99.50;101340.00;5073880;28;20191;-71
2021/01/04 08:36:56;;;;;;;13.07;4.93;;;1.80;99.90;;;2.53;99.42;101340.00;5073613;28;20207;-71
2021/01/04 08:39:36;;;;;;;14.50;5.20;;;1.80;99.90;;;2.50;99.54;101340.88;5073458;28;21083;-71
2021/01/04 08:42:24;;;;;;;13.17;4.73;;;1.80;99.90;;;2.50;99.52;101346.03;5073579;28;20219;-71
2021/01/04 08:44:57;;;;;;;15.33;5.47;;;1.80;99.90;;;2.51;99.41;101336.59;5073745;28;20203;-71
2021/01/04 08:47:33;;;;;;;12.87;5.00;;;1.80;99.90;;;2.51;99.22;101346.91;5071537;28;20285;-71
2021/01/04 08:50:33;;;;;;;13.63;5.40;;;1.80;99.90;;;2.48;99.02;101345.16;5073066;28;20198;-71
2021/01/04 08:53:17;;;;;;;15.27;4.57;;;1.80;99.90;;;2.51;99.08;101342.59;5063635;28;20709;-70
2021/01/04 08:55:44;;;;;;;16.23;6.23;;;1.80;99.90;;;2.53;99.19;101346.06;5072102;28;20207;-71
2021/01/04 08:58:34;;;;;;;17.10;5.57;;;1.80;99.90;;;2.55;99.27;101339.19;5071738;28;20196;-70
2021/01/04 09:01:08;;;;;;;15.87;6.07;;;1.80;99.90;;;2.58;98.91;101341.78;5073303;28;20187;-71
2021/01/04 09:03:36;;;;;;;16.17;5.40;;;1.80;99.90;;;2.58;98.86;101342.66;5073172;28;20208;-71
2021/01/04 09:06:26;;;;;;;19.77;5.57;;;1.80;99.90;;;2.58;98.92;101348.66;5073011;28;20188;-71
2021/01/04 09:09:05;;;;;;;15.97;5.27;;;1.90;99.90;;;2.58;99.01;101346.06;5073063;28;20302;-71
2021/01/04 09:11:38;;;;;;;13.63;5.40;;;1.90;99.90;;;2.60;98.81;101346.94;5073146;28;20225;-71
2021/01/04 09:14:18;;;;;;;16.83;5.50;;;1.90;99.90;;;2.60;98.75;101348.69;5073035;28;20185;-70
2021/01/04 09:16:46;;;;;;;15.93;5.40;;;1.90;99.90;;;2.60;98.91;101356.44;5073053;28;20683;-71
2021/01/04 09:19:24;;;;;;;16.80;6.10;;;1.90;99.90;;;2.59;98.75;101352.97;5071399;28;20681;-70
2021/01/04 09:21:52;;;;;;;13.73;5.17;;;1.90;99.90;;;2.60;98.79;101357.28;5071437;28;20215;-70
2021/01/04 09:24:35;;;;;;;14.77;5.53;;;1.90;99.90;;;2.61;98.74;101358.16;5065784;28;20254;-71
2021/01/04 09:27:17;;;;;;;15.77;5.17;;;1.90;99.90;;;2.62;98.81;101360.72;5071352;28;20213;-71
2021/01/04 09:29:51;;;;;;;16.75;6.15;;;1.90;99.90;;;2.66;98.86;101356.44;5072597;28;20184;-70
2021/01/04 09:32:29;;;;;;;13.93;5.00;;;1.90;99.90;;;2.67;98.67;101353.88;5072671;28;20203;-71
2021/01/04 09:34:55;;;;;;;16.23;5.37;;;1.90;99.90;;;2.67;98.67;101353.88;5072862;28;20180;-70
2021/01/04 09:37:26;;;;;;;15.33;5.23;;;1.90;99.90;;;2.66;98.68;101359.03;5072451;28;20184;-71
2021/01/04 09:40:00;;;;;;;15.40;5.67;;;1.90;99.90;;;2.66;98.46;101361.63;5072428;28;20188;-70
2021/01/04 09:42:29;;;;;;;16.73;5.40;;;1.90;99.90;;;2.67;98.58;101363.34;5071295;28;20212;-71
2021/01/04 09:45:06;;;;;;;18.27;6.53;;;1.90;99.90;;;2.68;98.69;101365.06;5072580;28;20249;-70
2021/01/04 09:47:41;;;;;;;14.97;5.33;;;1.90;99.90;;;2.68;98.59;101363.34;5072246;28;20675;-71
2021/01/04 09:50:21;;;;;;;15.63;5.43;;;1.90;99.90;;;2.68;98.50;101362.50;5070603;28;20195;-72
2021/01/04 09:52:56;;;;;;;16.30;5.83;;;1.90;99.90;;;2.67;98.57;101358.16;5078564;28;20218;-71
2021/01/04 09:55:30;;;;;;;17.57;6.00;;;2.00;99.90;;;2.65;98.23;101350.41;5051035;28;20215;-71
2021/01/04 09:58:02;;;;;;;15.57;5.43;;;2.00;99.90;;;2.66;98.37;101361.63;5052075;28;20191;-71
2021/01/04 10:00:33;;;;;;;14.77;6.13;;;2.00;99.90;;;2.67;98.67;101359.03;5050849;28;20193;-71
2021/01/04 10:03:04;;;;;;;18.73;6.77;;;2.00;99.90;;;2.67;98.58;101356.47;5051992;28;20322;-69
2021/01/04 10:05:40;;;;;;;20.40;6.73;;;2.00;99.90;;;2.68;98.64;101359.91;5052455;28;20199;-72
2021/01/04 10:08:12;;;;;;;20.03;6.90;;;2.00;99.90;;;2.67;98.49;101361.63;5051595;28;20208;-70
2021/01/04 10:10:41;;;;;;;18.33;7.03;;;2.00;99.90;;;2.68;98.52;101352.16;5050676;28;20193;-71
2021/01/04 10:13:12;;;;;;;18.53;7.00;;;2.00;99.90;;;2.69;98.58;101354.75;5051844;28;20213;-71
2021/01/04 10:15:40;;;;;;;15.60;6.50;;;2.00;99.90;;;2.71;98.29;101349.59;5052048;28;20288;-71
2021/01/04 10:18:32;;;;;;;23.37;7.57;;;2.00;99.90;;;2.72;98.37;101353.88;5050314;28;20196;-70
2021/01/04 10:20:59;;;;;;;17.77;6.30;;;2.00;99.90;;;2.73;98.15;101353.03;5060052;28;20593;-71
2021/01/04 10:23:33;;;;;;;18.87;7.40;;;2.10;99.90;;;2.76;98.20;101358.22;5078431;28;20307;-70
2021/01/04 10:26:02;;;;;;;19.90;7.10;;;2.10;99.90;;;2.77;98.08;101341.84;5071528;28;20180;-71
2021/01/04 10:28:34;;;;;;;26.10;8.20;;;2.10;99.90;;;2.76;98.25;101350.47;5071685;28;20203;-71
2021/01/04 10:31:04;;;;;;;22.43;7.90;;;2.10;99.90;;;2.74;97.90;101345.31;5071841;28;20195;-70
2021/01/04 10:33:36;;;;;;;23.57;8.70;;;2.10;99.90;;;2.75;98.21;101346.16;5071585;28;20209;-71
2021/01/04 10:36:08;;;;;;;21.17;7.77;;;2.10;99.90;;;2.74;97.90;101350.47;5071180;28;20682;-71
2021/01/04 10:38:40;;;;;;;17.53;7.07;;;2.10;99.90;;;2.73;97.99;101345.28;5070180;28;20567;-71
2021/01/04 10:41:10;;;;;;;21.27;8.40;;;2.10;99.90;;;2.71;97.72;101342.72;5071482;28;20188;-71
2021/01/04 10:43:38;;;;;;;19.25;7.63;;;2.10;99.90;;;2.74;97.83;101336.69;5070096;28;20255;-71
2021/01/04 10:46:28;;;;;;;30.07;11.03;;;2.10;99.90;;;2.75;98.00;101335.84;5070158;28;20671;-71
2021/01/04 10:49:00;;;;;;;20.98;7.28;;;2.10;99.90;;;2.76;98.01;101340.13;5069926;28;20231;-71
2021/01/04 10:51:28;;;;;;;23.80;9.07;;;2.10;99.90;;;2.77;97.85;101334.97;5071158;28;20203;-70
2021/01/04 10:53:54;;;;;;;24.67;8.30;;;2.10;99.90;;;2.79;98.03;101332.38;5062946;28;20196;-71
2021/01/04 10:56:38;;;;;;;20.33;8.23;;;2.20;99.90;;;2.77;97.72;101331.53;5069883;28;20192;-71
2021/01/04 10:59:22;;;;;;;22.10;7.57;;;2.10;99.90;;;2.74;97.79;101329.81;5069877;28;20196;-71
2021/01/04 11:01:51;;;;;;;20.33;6.97;;;2.10;99.90;;;2.71;97.77;101331.50;5069963;28;20212;-70
2021/01/04 11:04:20;;;;;;;27.13;8.10;;;2.10;99.90;;;2.71;97.67;101319.47;5071368;28;20196;-71
2021/01/04 11:07:00;;;;;;;21.90;7.50;;;2.10;99.90;;;2.77;97.63;101326.34;5071120;28;20207;-71
2021/01/04 11:09:32;;;;;;;26.40;9.50;;;2.10;99.90;;;2.79;97.86;101328.09;5069551;28;20310;-71
2021/01/04 11:12:10;;;;;;;21.23;7.20;;;2.10;99.90;;;2.81;97.82;101330.69;5071309;28;20720;-70
2021/01/04 11:14:39;;;;;;;20.87;7.83;;;2.10;99.90;;;2.84;97.68;101333.28;5071430;28;20331;-71